Latest Weather Observations for St Lawrence

IDQ60801

Issued at 9:05 pm EST Friday 31 October 2014 (issued every 30 minutes, with the page automatically refreshed every 10 minutes)

About weather observations | Map of weather stations | Latest weather observations for QLD | Other Formats
Station Details ID: 033210 Name: ST LAWRENCE Lat: -22.35 Lon: 149.52 Height: 9.19 m
Data from the previous 72 hours. | See also: Recent months at St Lawrence
Date/Time
EST
Temp
°C
App
Temp
°C
Dew
Point
Rel
Hum
%
Delta-T
°C
Wind Press
QNH
hPa
Press
MSL
hPa
Rain
since 9 am
mm
Dir
 
Spd
km/h
Gust
km/h
Spd
kts
Gust
kts
31/09:00pm 24.1 24.4 19.6 76 2.9 NE 17 26 9 14 1015.1 1015.0 0.0
31/08:30pm 24.0 24.3 19.7 77 2.8 NE 17 24 9 13 1014.9 1014.8 0.0
31/08:00pm 24.2 25.1 20.1 78 2.7 NNE 15 22 8 12 1014.7 1014.6 0.0
31/07:30pm 24.3 25.2 20.0 77 2.8 NNE 15 24 8 13 1014.5 1014.4 0.0
31/07:00pm 24.4 24.8 19.9 76 2.9 NNE 17 24 9 13 1014.1 1014.0 0.0
31/06:30pm 24.4 24.7 19.7 75 3.0 NE 17 22 9 12 1013.9 1013.8 0.0
31/06:00pm 24.8 24.8 19.8 74 3.2 NNE 19 26 10 14 1013.9 1013.8 0.0
31/05:30pm 25.4 25.2 19.3 69 3.9 NE 19 28 10 15 1013.6 1013.5 0.0
31/05:00pm 26.1 24.8 18.2 61 5.0 NNE 22 32 12 17 1013.2 1013.1 0.0
31/04:30pm 26.4 25.9 19.0 63 4.7 NE 20 28 11 15 1013.2 1013.1 0.0
31/04:00pm 27.0 26.1 19.1 62 5.1 NNE 22 32 12 17 1012.8 1012.7 0.0
31/03:30pm 27.4 26.2 18.4 58 5.7 NNE 22 30 12 16 1012.7 1012.6 0.0
31/03:00pm 27.3 25.8 18.6 59 5.6 NNE 24 35 13 19 1013.0 1012.9 0.0
31/02:30pm 27.8 27.0 19.3 60 5.5 NNE 22 32 12 17 1013.2 1013.1 0.0
31/02:00pm 27.9 26.5 18.9 58 5.8 NE 24 33 13 18 1013.3 1013.2 0.0
31/01:30pm 28.7 27.2 18.5 54 6.5 NNE 24 32 13 17 1013.7 1013.6 0.0
31/01:00pm 28.6 27.7 19.0 56 6.2 NE 22 32 12 17 1014.0 1013.9 0.0
31/12:30pm 28.7 27.2 18.5 54 6.5 NNE 24 35 13 19 1014.3 1014.2 0.0
31/12:00pm 28.0 26.7 18.1 55 6.3 NNE 22 30 12 16 1014.7 1014.6 0.0
31/11:30am 28.6 27.8 18.4 54 6.5 NE 20 28 11 15 1015.1 1015.0 0.0
31/11:00am 28.1 27.1 17.9 54 6.5 NE 20 32 11 17 1015.5 1015.4 0.0
31/10:30am 27.9 27.0 18.3 56 6.1 NNE 20 28 11 15 1015.7 1015.6 0.0
31/10:00am 27.7 27.5 18.4 57 5.9 NE 17 22 9 12 1015.9 1015.8 0.0
31/09:30am 27.2 26.8 18.8 60 5.4 NE 19 26 10 14 1015.9 1015.8 0.0
31/09:00am 26.6 26.3 18.2 60 5.3 NE 17 24 9 13 1015.9 1015.8 0.0
31/08:30am 26.2 25.5 18.3 61 5.0 NE 19 24 10 13 1015.7 1015.6 0.0
31/08:00am 26.3 26.4 19.2 65 4.6 NNE 17 24 9 13 1015.7 1015.6 0.0
31/07:30am 25.0 25.0 18.9 69 3.9 NE 17 22 9 12 1015.4 1015.3 0.0
31/07:00am 25.0 25.4 19.1 70 3.8 NNE 15 26 8 14 1015.1 1015.0 0.0
31/06:30am 23.4 24.6 19.1 77 2.7 NE 11 15 6 8 1014.9 1014.8 0.0
31/06:00am 23.0 24.5 19.0 78 2.5 NE 9 15 5 8 1014.7 1014.6 0.0
31/05:30am 22.2 23.5 18.4 79 2.4 ENE 9 13 5 7 1014.5 1014.4 0.0
31/05:00am 22.2 23.8 18.2 78 2.5 NE 7 13 4 7 1014.5 1014.4 0.0
31/04:30am 22.4 24.2 18.2 77 2.6 ENE 6 7 3 4 1014.3 1014.2 0.0
31/04:00am 23.0 23.8 19.0 78 2.5 NE 13 19 7 10 1013.8 1013.7 0.0
31/03:30am 23.2 23.6 18.9 77 2.7 NE 15 20 8 11 1013.6 1013.5 0.0
31/03:00am 22.8 24.1 19.2 80 2.3 NE 11 19 6 10 1013.4 1013.3 0.0
31/02:30am 22.9 23.7 19.1 79 2.4 NE 13 17 7 9 1013.5 1013.4 0.0
31/02:00am 22.8 23.6 19.0 79 2.4 NE 13 17 7 9 1013.5 1013.4 0.0
31/01:30am 23.0 24.4 19.6 81 2.2 NE 11 19 6 10 1013.9 1013.8 0.0
31/01:00am 23.0 24.0 19.4 80 2.3 NE 13 19 7 10 1013.8 1013.7 0.0
31/12:30am 23.3 23.9 19.5 79 2.4 NE 15 20 8 11 1014.1 1014.0 0.0
31/12:00am 23.5 24.6 19.6 79 2.5 NE 13 20 7 11 1014.8 1014.7 0.0
 
Date/Time
EST
Temp
°C
App
Temp
°C
Dew
Point
Rel
Hum
%
Delta-T
°C
Wind Press
QNH
hPa
Press
MSL
hPa
Rain
since 9 am
mm
Dir
 
Spd
km/h
Gust
km/h
Spd
kts
Gust
kts
30/11:30pm 23.8 25.0 19.9 79 2.5 NE 13 20 7 11 1014.8 1014.7 0.0
30/11:00pm 23.7 23.6 19.6 78 2.6 NNE 19 24 10 13 1014.5 1014.4 0.0
30/10:30pm 23.7 25.3 20.0 80 2.4 NNE 11 17 6 9 1015.0 1014.9 0.0
30/10:00pm 24.0 25.3 20.1 79 2.5 NE 13 19 7 10 1014.8 1014.7 0.0
30/09:30pm 24.0 24.9 20.1 79 2.5 NE 15 22 8 12 1014.8 1014.7 0.0
30/09:00pm 24.2 25.1 20.1 78 2.7 NE 15 24 8 13 1014.8 1014.7 0.0
30/08:30pm 24.1 24.6 20.0 78 2.6 NE 17 24 9 13 1014.3 1014.2 0.0
30/08:00pm 24.4 24.4 20.1 77 2.8 NNE 20 28 11 15 1014.2 1014.1 0.0
30/07:30pm 24.6 25.3 20.5 78 2.7 NE 17 24 9 13 1014.1 1014.0 0.0
30/07:00pm 24.5 24.7 20.6 79 2.5 NNE 20 32 11 17 1013.8 1013.7 0.0
30/06:30pm 24.6 24.8 20.5 78 2.7 NNE 20 28 11 15 1013.5 1013.4 0.0
30/06:00pm 24.8 24.8 20.1 75 3.0 NNE 20 28 11 15 1013.3 1013.2 0.0
30/05:30pm 25.6 24.9 19.5 69 3.9 NNE 22 30 12 16 1012.9 1012.8 0.0
30/05:00pm 26.0 25.7 19.6 68 4.1 NNE 20 30 11 16 1012.4 1012.3 0.0
30/04:30pm 26.5 25.5 18.9 63 4.9 NE 22 30 12 16 1012.4 1012.3 0.0
30/04:00pm 27.1 26.3 19.2 62 5.1 NNE 22 33 12 18 1012.3 1012.2 0.0
30/03:30pm 27.1 26.0 19.4 62 5.0 NE 24 32 13 17 1012.2 1012.1 0.0
30/03:00pm 27.6 26.3 19.1 59 5.5 NE 24 33 13 18 1012.2 1012.1 0.0
30/02:30pm 27.9 26.6 19.1 58 5.7 NE 24 32 13 17 1012.5 1012.4 0.0
30/02:00pm 28.1 26.9 19.3 58 5.7 NE 24 32 13 17 1012.8 1012.7 0.0
30/01:30pm 28.1 26.1 18.2 55 6.3 NE 26 35 14 19 1013.0 1012.9 0.0
30/01:00pm 29.0 26.8 17.8 50 7.1 NE 26 37 14 20 1013.2 1013.1 0.0
30/12:30pm 28.6 26.9 18.1 53 6.7 NE 24 35 13 19 1013.8 1013.7 0.0
30/12:00pm 27.8 26.0 17.9 54 6.3 NE 24 32 13 17 1014.1 1014.0 0.0
30/11:30am 28.7 27.8 19.1 56 6.2 NNE 22 30 12 16 1014.6 1014.5 0.0
30/11:00am 28.5 28.4 20.0 60 5.6 NNE 20 28 11 15 1014.7 1014.6 0.0
30/10:30am 27.7 27.6 20.0 63 5.0 NE 20 30 11 16 1014.8 1014.7 0.0
30/10:00am 27.9 28.6 21.2 67 4.5 NE 19 24 10 13 1015.0 1014.9 0.0
30/09:30am 26.4 26.5 20.0 68 4.2 NNE 19 24 10 13 1015.0 1014.9 0.0
30/09:00am 26.0 26.5 20.1 70 3.8 NE 17 24 9 13 1015.1 1015.0 0.0
30/08:30am 26.9 28.6 21.6 72 3.5 NNE 15 24 8 13 1015.3 1015.2 0.0
30/08:00am 25.3 26.2 20.8 76 3.0 NNE 17 22 9 12 1015.2 1015.1 0.0
30/07:30am 24.5 26.9 20.8 80 2.4 NNE 9 15 5 8 1015.1 1015.0 0.0
30/07:00am 22.8 26.8 20.5 87 1.5 CALM 0 0 0 0 1015.1 1015.0 0.0
30/06:30am 21.8 24.4 20.1 90 1.1 N 6 7 3 4 1015.2 1015.1 0.0
30/06:00am 20.7 24.1 19.4 92 0.8 CALM 0 6 0 3 1015.3 1015.2 0.0
30/05:30am 19.9 23.0 18.6 92 0.8 CALM 0 0 0 0 1015.2 1015.1 0.0
30/05:00am 20.1 21.8 18.6 91 0.9 W 7 15 4 8 1014.8 1014.7 0.0
30/04:30am 20.4 23.1 19.4 94 0.6 E 4 9 2 5 1014.6 1014.5 0.0
30/04:00am 20.0 21.5 18.8 93 0.8 SSW 9 11 5 6 1014.7 1014.6 0.0
30/03:30am 19.8 21.5 18.1 90 1.1 W 6 9 3 5 1013.4 1013.3 0.0
30/03:00am 20.4 22.0 18.3 88 1.3 W 7 9 4 5 1013.6 1013.5 0.0
30/02:30am 22.8 25.2 20.1 85 1.7 NNE 7 11 4 6 1013.0 1012.9 0.0
30/02:00am 22.9 24.6 20.2 85 1.7 NNE 11 17 6 9 1012.3 1012.2 0.0
30/01:30am 23.1 24.8 20.2 84 1.9 NNE 11 15 6 8 1012.3 1012.2 0.0
30/01:00am 23.1 24.8 20.2 84 1.9 NNE 11 17 6 9 1012.5 1012.4 0.0
30/12:30am 23.2 24.6 20.3 84 1.9 NNE 13 20 7 11 1012.6 1012.5 0.0
30/12:00am 23.5 24.7 20.6 84 1.9 N 15 20 8 11 1012.8 1012.7 0.0
 
Date/Time
EST
Temp
°C
App
Temp
°C
Dew
Point
Rel
Hum
%
Delta-T
°C
Wind Press
QNH
hPa
Press
MSL
hPa
Rain
since 9 am
mm
Dir
 
Spd
km/h
Gust
km/h
Spd
kts
Gust
kts
29/11:30pm 23.5 24.3 20.6 84 1.9 NNE 17 22 9 12 1013.0 1012.9 0.0
29/11:00pm 23.5 24.7 20.6 84 1.9 NNE 15 20 8 11 1013.2 1013.1 0.0
29/10:30pm 23.7 24.9 20.6 83 2.0 N 15 20 8 11 1013.5 1013.4 0.0
29/10:00pm 23.8 24.6 20.7 83 2.0 NE 17 24 9 13 1013.4 1013.3 0.0
29/09:30pm 24.0 24.9 20.9 83 2.0 NNE 17 22 9 12 1013.5 1013.4 0.0
29/09:00pm 24.3 25.6 20.8 81 2.3 N 15 24 8 13 1013.6 1013.5 0.0
29/08:30pm 24.3 26.1 21.2 83 2.0 NNE 13 17 7 9 1013.4 1013.3 0.0
29/08:00pm 24.4 25.9 21.3 83 2.0 NNE 15 20 8 11 1013.3 1013.2 0.0
29/07:30pm 24.5 25.6 21.2 82 2.2 NNE 17 24 9 13 1013.0 1012.9 0.0
29/07:00pm 24.6 25.4 21.3 82 2.2 NNE 19 28 10 15 1012.5 1012.4 0.0
29/06:30pm 24.8 24.9 21.1 80 2.4 NNE 22 32 12 17 1012.3 1012.2 0.0
29/06:00pm 25.2 26.3 21.3 79 2.6 NE 17 24 9 13 1011.9 1011.8 0.0
29/05:30pm 25.7 25.7 20.9 75 3.2 NNE 22 32 12 17 1011.5 1011.4 0.0
29/05:00pm 26.4 25.8 20.5 70 3.9 NNE 24 35 13 19 1011.1 1011.0 0.0
29/04:30pm 27.4 27.4 21.0 68 4.2 NNE 22 33 12 18 1010.9 1010.8 0.0
29/04:00pm 28.5 27.9 19.7 59 5.7 NNE 22 32 12 17 1010.8 1010.7 0.0
29/03:30pm 28.7 27.8 19.1 56 6.2 NNE 22 30 12 16 1010.8 1010.7 0.0
29/03:00pm 28.8 27.8 18.9 55 6.4 NNE 22 30 12 16 1010.9 1010.8 0.0
29/02:30pm 28.9 28.2 19.5 57 6.1 NNE 22 30 12 16 1011.1 1011.0 0.0
29/02:00pm 29.4 28.9 20.0 57 6.2 NE 22 30 12 16 1011.4 1011.3 0.0
29/01:30pm 28.8 28.0 20.0 59 5.8 NE 24 33 13 18 1011.6 1011.5 0.0
29/01:00pm 29.4 29.9 21.1 61 5.5 NE 20 28 11 15 1011.7 1011.6 0.0
29/12:30pm 29.4 29.6 20.5 58 5.9 NE 20 28 11 15 1011.9 1011.8 0.0
29/12:00pm 29.4 29.5 20.3 58 6.0 NE 20 26 11 14 1012.3 1012.2 0.0
29/11:30am 29.6 29.9 19.6 55 6.5 ENE 17 30 9 16 1012.9 1012.8 0.0
29/11:00am 29.9 30.5 20.2 56 6.4 ENE 17 24 9 13 1013.2 1013.1 0.0
29/10:30am 29.5 30.4 20.1 57 6.2 NE 15 24 8 13 1013.4 1013.3 0.0
29/10:00am 28.8 29.8 20.3 60 5.6 NNE 15 20 8 11 1013.7 1013.6 0.0
29/09:30am 28.4 29.8 19.6 59 5.7 NNE 11 17 6 9 1013.9 1013.8 0.0
29/09:00am 28.0 29.4 19.5 60 5.5 NE 11 15 6 8 1014.1 1014.0 0.0
29/08:30am 27.1 28.8 19.4 62 5.0 NE 9 13 5 7 1014.3 1014.2 0.0
29/08:00am 26.6 27.9 19.2 64 4.8 SSE 11 15 6 8 1014.2 1014.1 0.0
29/07:30am 25.4 26.2 19.1 68 4.0 SE 13 17 7 9 1014.0 1013.9 0.0
29/07:00am 25.1 26.7 19.2 70 3.8 SE 9 15 5 8 1013.9 1013.8 0.0
29/06:30am 23.6 25.8 20.3 82 2.1 S 9 15 5 8 1013.7 1013.6 0.0
29/06:00am 22.4 24.1 20.1 87 1.5 SSE 11 17 6 9 1013.2 1013.1 0.0
29/05:30am 21.6 22.0 19.9 90 1.1 S 17 22 9 12 1012.8 1012.7 0.0
29/05:00am 22.0 23.7 19.4 85 1.7 S 9 15 5 8 1011.6 1011.5 0.0
29/04:30am 22.9 24.9 19.9 83 1.9 NNE 9 15 5 8 1010.9 1010.8 0.0
29/04:00am 22.0 24.3 19.9 88 1.3 E 7 11 4 6 1011.0 1010.9 0.0
29/03:30am 22.0 24.1 20.1 89 1.2 N 9 13 5 7 1010.8 1010.7 0.0
29/03:00am 21.7 25.4 20.0 90 1.1 CALM 0 0 0 0 1011.1 1011.0 0.0
29/02:30am 21.8 24.2 20.1 90 1.1 N 7 9 4 5 1010.9 1010.8 0.0
29/02:00am 21.6 23.7 20.1 91 1.0 NNW 9 11 5 6 1011.5 1011.4 0.0
29/01:30am 21.5 24.0 19.8 90 1.1 W 6 9 3 5 1012.5 1012.4 0.0
29/01:00am 22.2 26.0 20.1 88 1.4 CALM 0 0 0 0 1013.1 1013.0 0.0
29/12:30am 22.4 25.1 20.3 88 1.4 SSW 6 7 3 4 1013.9 1013.8 0.0
29/12:00am 22.2 25.1 19.9 87 1.5 S 4 9 2 5 1014.3 1014.2 0.0
 
Date/Time
EST
Temp
°C
App
Temp
°C
Dew
Point
Rel
Hum
%
Delta-T
°C
Wind Press
QNH
hPa
Press
MSL
hPa
Rain
since 9 am
mm
Dir
 
Spd
km/h
Gust
km/h
Spd
kts
Gust
kts
28/11:30pm 22.5 24.6 20.2 87 1.5 SE 9 13 5 7 1014.5 1014.4 0.0
28/11:00pm 22.5 24.8 19.9 85 1.7 S 7 13 4 7 1014.5 1014.4 0.0
28/10:30pm 23.1 25.1 19.9 82 2.1 E 9 17 5 9 1013.6 1013.5 0.0
28/10:00pm 23.3 24.5 19.9 81 2.2 NNE 13 19 7 10 1012.7 1012.6 0.0
28/09:30pm 23.7 24.1 19.8 79 2.5 NNE 17 24 9 13 1012.4 1012.3 0.0

Other Formats:

Comma delimited format used in spreadsheet applications
http://www.bom.gov.au/fwo/IDQ60801/IDQ60801.95369.axf

JavaScript Object Notation format (JSON) in row-major order
http://www.bom.gov.au/fwo/IDQ60801/IDQ60801.95369.json